RJAZ(METAR)
08/13 14:00
RJAZ 130500Z 26017KT CAVOK 31/26 Q1009 RMK A2982=
戻る
トップページへ戻る
IMOC Co,.Ltd.